createdAt,value
2018-05-03T00:00:36.220Z,69.60
2018-05-03T00:03:03.618Z,69.90
2018-05-03T00:05:30.996Z,71.41
2018-05-03T00:07:58.388Z,72.64
2018-05-03T00:10:26.088Z,73.19
2018-05-03T00:12:54.182Z,73.87
2018-05-03T00:15:21.879Z,72.86
2018-05-03T00:17:49.263Z,72.88
2018-05-03T00:20:16.660Z,73.56
2018-05-03T00:22:44.072Z,74.03
2018-05-03T00:25:11.453Z,74.62
2018-05-03T00:27:38.862Z,74.71
2018-05-03T00:30:06.242Z,74.23
2018-05-03T00:32:33.628Z,74.40
2018-05-03T00:35:01.049Z,74.30
2018-05-03T00:37:29.559Z,74.17
2018-05-03T00:39:56.930Z,74.05
2018-05-03T00:42:24.327Z,74.13
2018-05-03T00:44:51.725Z,74.05
2018-05-03T00:47:19.122Z,73.74
2018-05-03T00:49:46.512Z,74.04
2018-05-03T00:52:14.157Z,74.27
2018-05-03T00:54:48.264Z,74.26
2018-05-03T00:57:16.495Z,72.84
2018-05-03T00:59:43.889Z,72.41
2018-05-03T01:02:11.293Z,71.56
2018-05-03T01:04:38.667Z,71.52
2018-05-03T01:07:06.069Z,70.86
2018-05-03T01:09:33.458Z,70.83
2018-05-03T01:12:01.445Z,71.10
2018-05-03T01:14:28.812Z,71.97
2018-05-03T01:16:56.211Z,72.32
2018-05-03T01:19:24.022Z,74.24
2018-05-03T01:21:51.419Z,73.99
2018-05-03T01:24:19.187Z,74.00
2018-05-03T01:26:46.584Z,74.31
2018-05-03T01:29:13.962Z,73.87
2018-05-03T01:31:41.995Z,75.08
2018-05-03T01:34:09.388Z,75.49
2018-05-03T01:36:36.776Z,75.38
2018-05-03T01:39:04.182Z,75.65
2018-05-03T01:41:31.572Z,74.72
2018-05-03T01:43:58.965Z,74.97
2018-05-03T01:46:26.356Z,75.00
2018-05-03T01:48:53.758Z,74.66
2018-05-03T01:51:21.156Z,74.82
2018-05-03T01:53:48.544Z,75.72
2018-05-03T01:56:15.935Z,75.22
2018-05-03T01:58:43.323Z,75.12
2018-05-03T02:01:10.703Z,74.55
2018-05-03T02:03:38.102Z,74.31
2018-05-03T02:06:05.496Z,74.36
2018-05-03T02:08:32.875Z,74.65
2018-05-03T02:11:00.260Z,75.27
2018-05-03T02:13:27.655Z,73.81
2018-05-03T02:15:55.793Z,73.30
2018-05-03T02:18:23.169Z,74.20
2018-05-03T02:20:50.566Z,74.56
2018-05-03T02:23:17.944Z,74.48
2018-05-03T02:25:45.342Z,74.41
2018-05-03T02:28:13.093Z,74.64
2018-05-03T02:30:41.480Z,74.56
2018-05-03T02:33:08.875Z,73.59
2018-05-03T02:35:36.272Z,74.08
2018-05-03T02:38:03.677Z,74.29
2018-05-03T02:40:31.057Z,75.95
2018-05-03T02:42:58.447Z,77.13
2018-05-03T02:45:26.901Z,78.07
2018-05-03T02:47:54.283Z,78.36
2018-05-03T02:50:21.690Z,78.77
2018-05-03T02:52:49.072Z,78.54
2018-05-03T02:55:16.472Z,79.02
2018-05-03T02:58:01.288Z,79.64
2018-05-03T03:00:46.319Z,79.94
2018-05-03T03:03:31.247Z,79.85
2018-05-03T03:06:10.566Z,79.75
2018-05-03T03:09:06.395Z,79.89
2018-05-03T03:15:03.813Z,79.93
2018-05-03T03:17:48.544Z,79.97
2018-05-03T03:20:42.416Z,79.89
2018-05-03T03:23:27.285Z,79.93
2018-05-03T03:29:37.009Z,79.90
2018-05-03T03:32:16.234Z,79.72
2018-05-03T03:34:43.636Z,79.46
2018-05-03T03:37:32.687Z,79.30
2018-05-03T03:40:17.457Z,77.94
2018-05-03T03:45:49.968Z,75.82
2018-05-03T03:48:17.340Z,74.69
2018-05-03T03:50:44.739Z,73.98
2018-05-03T03:53:12.193Z,73.79
2018-05-03T03:55:39.565Z,73.59
2018-05-03T03:58:06.944Z,74.04
2018-05-03T04:00:34.355Z,73.28
2018-05-03T04:03:01.744Z,74.01
2018-05-03T04:05:29.828Z,74.06
2018-05-03T04:07:57.236Z,74.49
2018-05-03T04:10:24.621Z,74.52
2018-05-03T04:12:52.024Z,74.31
2018-05-03T04:15:19.415Z,74.67
2018-05-03T04:17:58.569Z,74.79
2018-05-03T04:20:40.420Z,74.84
2018-05-03T04:23:19.579Z,74.39
2018-05-03T04:25:58.690Z,73.88
2018-05-03T04:28:26.089Z,73.27
2018-05-03T04:30:53.488Z,72.88
2018-05-03T04:33:20.897Z,72.35
2018-05-03T04:35:48.288Z,72.36
2018-05-03T04:38:15.703Z,72.45
2018-05-03T04:40:43.100Z,71.93
2018-05-03T04:43:11.297Z,72.43
2018-05-03T04:45:38.696Z,71.55
2018-05-03T04:48:06.096Z,71.46
2018-05-03T04:50:33.511Z,71.34
2018-05-03T04:53:01.707Z,70.88
2018-05-03T04:55:29.096Z,70.39
2018-05-03T04:57:56.496Z,69.83
2018-05-03T05:00:23.886Z,70.36
2018-05-03T05:02:51.276Z,70.01
2018-05-03T05:05:18.671Z,69.81
2018-05-03T05:07:46.081Z,68.78
2018-05-03T05:10:13.480Z,67.78
2018-05-03T05:12:40.922Z,67.17
2018-05-03T05:15:08.313Z,66.62
2018-05-03T05:17:35.704Z,66.96
2018-05-03T05:20:03.110Z,66.00
2018-05-03T05:22:30.508Z,65.92
2018-05-03T05:24:57.909Z,66.03
2018-05-03T05:27:25.279Z,64.83
2018-05-03T05:29:52.688Z,64.46
2018-05-03T05:32:20.075Z,64.20
2018-05-03T05:34:47.467Z,64.17
2018-05-03T05:37:14.857Z,64.28
2018-05-03T05:39:42.244Z,64.46
2018-05-03T05:42:09.628Z,66.05
2018-05-03T05:44:37.029Z,64.53
2018-05-03T05:47:04.412Z,63.45
2018-05-03T05:49:31.820Z,63.68
2018-05-03T05:51:59.208Z,64.40
2018-05-03T05:54:26.598Z,64.26
2018-05-03T05:56:53.987Z,64.52
2018-05-03T05:59:21.395Z,63.83
2018-05-03T06:01:48.796Z,62.99
2018-05-03T06:04:16.254Z,63.31
2018-05-03T06:06:43.581Z,63.50
2018-05-03T06:09:10.983Z,63.37
2018-05-03T06:11:38.382Z,63.38
2018-05-03T06:14:05.776Z,63.39
2018-05-03T06:16:33.171Z,63.37
2018-05-03T06:19:00.581Z,63.13
2018-05-03T06:21:27.977Z,62.88
2018-05-03T06:23:55.388Z,62.27
2018-05-03T06:26:22.781Z,62.33
2018-05-03T06:28:50.192Z,62.87
2018-05-03T06:31:17.576Z,62.30
2018-05-03T06:33:44.968Z,62.32
2018-05-03T06:36:12.371Z,61.35
2018-05-03T06:38:39.766Z,63.13
2018-05-03T06:41:07.157Z,62.26
2018-05-03T06:43:34.690Z,61.15
2018-05-03T06:46:02.088Z,61.31
2018-05-03T06:48:30.455Z,60.97
2018-05-03T06:50:57.854Z,60.60
2018-05-03T06:53:25.232Z,60.46
2018-05-03T06:55:52.767Z,60.94
2018-05-03T06:58:20.166Z,60.64
2018-05-03T07:00:47.560Z,60.69
2018-05-03T07:03:14.956Z,61.31
2018-05-03T07:05:42.361Z,60.64
2018-05-03T07:08:09.736Z,60.41
2018-05-03T07:10:37.300Z,61.52
2018-05-03T07:13:04.695Z,60.84
2018-05-03T07:15:32.095Z,60.21
2018-05-03T07:17:59.479Z,60.16
2018-05-03T07:20:26.880Z,60.86
2018-05-03T07:22:54.262Z,60.92
2018-05-03T07:25:21.655Z,61.40
2018-05-03T07:27:49.043Z,63.15
2018-05-03T07:30:16.440Z,63.03
2018-05-03T07:32:43.835Z,62.46
2018-05-03T07:35:11.247Z,62.01
2018-05-03T07:37:38.633Z,62.17
2018-05-03T07:40:06.016Z,61.36
2018-05-03T07:42:33.416Z,61.43
2018-05-03T07:45:00.791Z,61.43
2018-05-03T07:47:28.192Z,61.72
2018-05-03T07:49:55.583Z,62.66
2018-05-03T07:52:22.987Z,62.76
2018-05-03T07:54:50.385Z,60.89
2018-05-03T07:57:17.784Z,61.19
2018-05-03T07:59:45.182Z,59.42
2018-05-03T08:02:13.116Z,60.72
2018-05-03T08:04:40.500Z,61.07
2018-05-03T08:07:07.901Z,60.76
2018-05-03T08:09:35.286Z,60.57
2018-05-03T08:12:02.702Z,60.56
2018-05-03T08:14:30.091Z,59.22
2018-05-03T08:16:57.497Z,58.63
2018-05-03T08:19:24.928Z,58.99
2018-05-03T08:21:52.259Z,59.10
2018-05-03T08:24:19.665Z,59.35
2018-05-03T08:26:47.055Z,58.65
2018-05-03T08:29:14.455Z,59.63
2018-05-03T08:31:41.937Z,59.96
2018-05-03T08:34:09.249Z,60.70
2018-05-03T08:36:36.654Z,59.68
2018-05-03T08:39:04.031Z,60.17
2018-05-03T08:41:31.417Z,58.93
2018-05-03T08:43:58.804Z,57.44
2018-05-03T08:46:26.213Z,57.33
2018-05-03T08:48:53.591Z,57.31
2018-05-03T08:51:20.975Z,56.80
2018-05-03T08:53:48.376Z,57.16
2018-05-03T08:56:15.756Z,57.39
2018-05-03T08:58:43.156Z,58.27
2018-05-03T09:01:10.545Z,58.06
2018-05-03T09:03:37.944Z,58.45
2018-05-03T09:06:05.343Z,57.41
2018-05-03T09:08:32.728Z,57.98
2018-05-03T09:11:00.132Z,57.83
2018-05-03T09:13:27.523Z,55.49
2018-05-03T09:15:54.900Z,56.88
2018-05-03T09:18:22.302Z,56.68
2018-05-03T09:20:49.684Z,56.69
2018-05-03T09:23:17.071Z,55.55
2018-05-03T09:25:44.463Z,55.41
2018-05-03T09:28:11.860Z,55.40
2018-05-03T09:30:39.251Z,56.11
2018-05-03T09:33:06.652Z,55.03
2018-05-03T09:35:34.037Z,54.28
2018-05-03T09:38:01.433Z,53.09
2018-05-03T09:40:28.820Z,53.16
2018-05-03T09:42:56.204Z,53.49
2018-05-03T09:45:23.620Z,53.66
2018-05-03T09:47:51.020Z,53.97
2018-05-03T09:50:18.417Z,52.79
2018-05-03T09:52:46.300Z,52.62
2018-05-03T09:55:14.521Z,52.03
2018-05-03T09:57:41.912Z,50.35
2018-05-03T10:00:09.299Z,52.16
2018-05-03T10:02:36.680Z,52.90
2018-05-03T10:05:04.079Z,51.19
2018-05-03T10:07:31.466Z,52.92
2018-05-03T10:09:58.849Z,53.47
2018-05-03T10:12:26.504Z,54.87
2018-05-03T10:14:53.883Z,51.71
2018-05-03T10:17:21.271Z,52.04
2018-05-03T10:19:49.648Z,51.65
2018-05-03T10:22:17.035Z,48.75
2018-05-03T10:24:44.432Z,50.56
2018-05-03T10:27:11.824Z,50.47
2018-05-03T10:29:39.224Z,50.36
2018-05-03T10:32:06.596Z,49.73
2018-05-03T10:34:34.000Z,49.19
2018-05-03T10:37:01.392Z,48.51
2018-05-03T10:39:28.791Z,48.08
2018-05-03T10:41:56.262Z,49.21
2018-05-03T10:44:23.563Z,49.65
2018-05-03T10:46:50.950Z,48.19
2018-05-03T10:49:19.213Z,46.39
2018-05-03T10:51:46.605Z,47.93
2018-05-03T10:54:14.010Z,46.82
2018-05-03T10:56:41.385Z,47.96
2018-05-03T10:59:08.800Z,47.81
2018-05-03T11:01:36.180Z,46.96
2018-05-03T11:04:03.562Z,47.34
2018-05-03T11:06:30.955Z,47.08
2018-05-03T11:08:58.341Z,46.94
2018-05-03T11:11:25.724Z,46.66
2018-05-03T11:13:53.109Z,45.03
2018-05-03T11:16:20.697Z,45.77
2018-05-03T11:18:48.074Z,46.19
2018-05-03T11:21:15.464Z,45.69
2018-05-03T11:23:42.853Z,46.17
2018-05-03T11:26:10.244Z,46.05
2018-05-03T11:28:37.631Z,46.83
2018-05-03T11:31:05.023Z,45.94
2018-05-03T11:33:32.411Z,45.78
2018-05-03T11:35:59.800Z,45.11
2018-05-03T11:38:27.193Z,45.52
2018-05-03T11:40:54.589Z,44.87
2018-05-03T11:43:21.965Z,44.39
2018-05-03T11:45:49.359Z,44.91
2018-05-03T11:48:16.735Z,44.53
2018-05-03T11:50:44.132Z,44.07
2018-05-03T11:53:11.517Z,44.16
2018-05-03T11:55:38.917Z,44.07
2018-05-03T11:58:06.308Z,44.45
2018-05-03T12:00:33.705Z,44.09
2018-05-03T12:03:01.101Z,44.67
2018-05-03T12:05:28.508Z,44.44
2018-05-03T12:07:55.901Z,44.74
2018-05-03T12:10:23.294Z,44.19
2018-05-03T12:12:51.647Z,44.79
2018-05-03T12:15:19.041Z,43.55
2018-05-03T12:17:46.423Z,41.38
2018-05-03T12:20:13.832Z,43.09
2018-05-03T12:22:41.219Z,43.12
2018-05-03T12:25:08.604Z,42.57
2018-05-03T12:27:36.003Z,42.70
2018-05-03T12:30:03.388Z,42.48
2018-05-03T12:32:30.788Z,43.20
2018-05-03T12:34:58.205Z,42.80
2018-05-03T12:37:25.563Z,43.13
2018-05-03T12:39:52.955Z,42.46
2018-05-03T12:42:20.340Z,43.69
2018-05-03T12:44:47.720Z,44.14
2018-05-03T12:47:15.116Z,43.00
2018-05-03T12:49:42.504Z,43.76
2018-05-03T12:52:09.892Z,41.90
2018-05-03T12:54:37.279Z,44.23
2018-05-03T12:57:04.672Z,43.47
2018-05-03T12:59:32.053Z,43.88
2018-05-03T13:01:59.459Z,43.84
2018-05-03T13:04:26.832Z,43.54
2018-05-03T13:06:54.229Z,44.32
2018-05-03T13:09:21.619Z,44.34
2018-05-03T13:11:49.005Z,44.56
2018-05-03T13:14:16.407Z,44.61
2018-05-03T13:16:43.795Z,45.30
2018-05-03T13:19:11.176Z,43.58
2018-05-03T13:21:38.583Z,43.75
2018-05-03T13:24:05.973Z,43.67
2018-05-03T13:26:33.443Z,42.90
2018-05-03T13:29:00.770Z,43.51
2018-05-03T13:31:28.151Z,42.92
2018-05-03T13:33:55.545Z,43.20
2018-05-03T13:36:22.949Z,43.65
2018-05-03T13:38:50.340Z,41.51
2018-05-03T13:41:17.796Z,41.76
2018-05-03T13:43:45.119Z,42.01
2018-05-03T13:46:12.600Z,42.35
2018-05-03T13:48:40.024Z,42.78
2018-05-03T13:51:07.411Z,42.12
2018-05-03T13:53:34.800Z,42.01
2018-05-03T13:56:02.180Z,42.15
2018-05-03T13:58:29.588Z,42.41
2018-05-03T14:00:56.973Z,42.16
2018-05-03T14:03:25.213Z,42.93
2018-05-03T14:05:52.598Z,42.50
2018-05-03T14:08:19.998Z,42.76
2018-05-03T14:10:47.381Z,42.60
2018-05-03T14:13:14.784Z,43.25
2018-05-03T14:15:42.176Z,42.76
2018-05-03T14:18:09.569Z,43.14
2018-05-03T14:20:36.964Z,42.55
2018-05-03T14:23:04.352Z,42.77
2018-05-03T14:25:31.749Z,42.65
2018-05-03T14:27:59.139Z,42.52
2018-05-03T14:30:26.523Z,42.38
2018-05-03T14:32:53.921Z,42.80
2018-05-03T14:35:21.308Z,43.03
2018-05-03T14:37:48.701Z,42.00
2018-05-03T14:40:16.086Z,41.98
2018-05-03T14:42:43.473Z,42.56
2018-05-03T14:45:10.861Z,42.52
2018-05-03T14:47:38.235Z,42.90
2018-05-03T14:50:05.656Z,42.21
2018-05-03T14:52:33.027Z,42.81
2018-05-03T14:55:00.417Z,41.48
2018-05-03T14:57:27.805Z,41.84
2018-05-03T14:59:55.197Z,42.01
2018-05-03T15:02:22.575Z,41.49
2018-05-03T15:04:49.981Z,41.56
2018-05-03T15:07:17.373Z,41.06
2018-05-03T15:09:44.765Z,41.12
2018-05-03T15:12:12.151Z,41.16
2018-05-03T15:14:39.543Z,41.58
2018-05-03T15:17:06.936Z,41.24
2018-05-03T15:19:34.342Z,42.74
2018-05-03T15:22:01.727Z,41.53
2018-05-03T15:24:29.121Z,41.64
2018-05-03T15:26:56.511Z,41.14
2018-05-03T15:29:23.900Z,41.13
2018-05-03T15:31:51.292Z,41.57
2018-05-03T15:34:18.679Z,41.90
2018-05-03T15:36:46.072Z,41.30
2018-05-03T15:39:13.490Z,42.80
2018-05-03T15:41:40.859Z,42.67
2018-05-03T15:44:08.264Z,43.00
2018-05-03T15:46:35.664Z,42.19
2018-05-03T15:49:03.040Z,42.27
2018-05-03T15:51:30.431Z,41.58
2018-05-03T15:53:57.818Z,41.70
2018-05-03T15:56:25.204Z,41.82
2018-05-03T15:58:52.604Z,42.19
2018-05-03T16:01:19.995Z,43.54
2018-05-03T16:03:47.373Z,43.38
2018-05-03T16:06:14.764Z,43.06
2018-05-03T16:08:42.157Z,43.17
2018-05-03T16:11:09.540Z,42.73
2018-05-03T16:13:36.936Z,42.68
2018-05-03T16:16:04.462Z,42.68
2018-05-03T16:18:31.848Z,42.59
2018-05-03T16:21:01.068Z,43.18
2018-05-03T16:23:28.440Z,42.41
2018-05-03T16:25:55.830Z,42.94
2018-05-03T16:28:23.212Z,42.29
2018-05-03T16:30:50.616Z,42.97
2018-05-03T16:33:17.993Z,43.69
2018-05-03T16:35:45.391Z,44.46
2018-05-03T16:38:12.838Z,45.01
2018-05-03T16:40:40.230Z,44.95
2018-05-03T16:43:07.607Z,45.36
2018-05-03T16:45:35.008Z,45.93
2018-05-03T16:48:02.404Z,45.28
2018-05-03T16:50:30.015Z,45.81
2018-05-03T16:52:57.410Z,46.23
2018-05-03T16:55:24.805Z,45.69
2018-05-03T16:57:52.202Z,45.96
2018-05-03T17:00:19.603Z,45.80
2018-05-03T17:02:46.983Z,45.93
2018-05-03T17:05:14.377Z,45.95
2018-05-03T17:07:41.756Z,46.39
2018-05-03T17:10:09.143Z,46.45
2018-05-03T17:12:37.421Z,46.70
2018-05-03T17:15:04.812Z,47.22
2018-05-03T17:17:32.198Z,47.29
2018-05-03T17:19:59.584Z,47.38
2018-05-03T17:22:26.976Z,47.41
2018-05-03T17:24:54.369Z,47.87
2018-05-03T17:27:21.765Z,48.20
2018-05-03T17:29:49.928Z,48.72
2018-05-03T17:32:17.316Z,48.94
2018-05-03T17:34:45.410Z,49.01
2018-05-03T17:37:13.694Z,49.24
2018-05-03T17:39:41.084Z,49.05
2018-05-03T17:42:08.466Z,49.30
2018-05-03T17:44:35.849Z,49.30
2018-05-03T17:47:03.883Z,49.74
2018-05-03T17:49:31.279Z,50.17
2018-05-03T17:51:58.682Z,50.00
2018-05-03T17:54:26.053Z,50.63
2018-05-03T17:56:53.517Z,50.86
2018-05-03T17:59:21.361Z,50.67
2018-05-03T18:01:48.803Z,50.71
2018-05-03T18:04:16.184Z,50.86
2018-05-03T18:06:43.565Z,51.32
2018-05-03T18:09:11.016Z,51.55
2018-05-03T18:11:38.411Z,51.32
2018-05-03T18:14:05.810Z,51.47
2018-05-03T18:16:33.189Z,51.75
2018-05-03T18:19:00.579Z,52.03
2018-05-03T18:21:28.053Z,52.16
2018-05-03T18:23:55.383Z,52.41
2018-05-03T18:26:22.788Z,52.62
2018-05-03T18:28:50.287Z,52.55
2018-05-03T18:31:17.884Z,52.95
2018-05-03T18:33:45.474Z,53.17
2018-05-03T18:36:13.097Z,53.81
2018-05-03T18:38:40.516Z,54.07
2018-05-03T18:41:07.996Z,54.46
2018-05-03T18:43:35.727Z,54.70
2018-05-03T18:46:03.141Z,55.06
2018-05-03T18:48:31.327Z,55.13
2018-05-03T18:50:58.712Z,55.41
2018-05-03T18:53:26.103Z,55.04
2018-05-03T18:55:53.494Z,55.10
2018-05-03T18:58:20.942Z,55.10
2018-05-03T19:00:48.272Z,55.11
2018-05-03T19:03:15.678Z,55.36
2018-05-03T19:05:43.058Z,55.08
2018-05-03T19:08:10.444Z,54.85
2018-05-03T19:10:37.846Z,54.91
2018-05-03T19:13:05.644Z,55.39
2018-05-03T19:15:32.976Z,55.53
2018-05-03T19:18:00.394Z,54.76
2018-05-03T19:20:28.056Z,55.02
2018-05-03T19:22:55.696Z,55.29
2018-05-03T19:25:23.140Z,54.50
2018-05-03T19:27:51.013Z,54.26
2018-05-03T19:30:18.436Z,54.33
2018-05-03T19:32:45.832Z,54.43
2018-05-03T19:35:13.311Z,54.37
2018-05-03T19:37:40.812Z,54.03
2018-05-03T19:40:08.317Z,53.87
2018-05-03T19:42:35.730Z,54.17
2018-05-03T19:45:03.263Z,53.97
2018-05-03T19:47:30.648Z,54.04
2018-05-03T19:49:58.095Z,53.42
2018-05-03T19:52:25.652Z,53.26
2018-05-03T19:54:53.041Z,53.13
2018-05-03T19:57:20.452Z,52.26
2018-05-03T19:59:47.843Z,52.26
2018-05-03T20:02:15.280Z,52.35
2018-05-03T20:04:42.737Z,52.64
2018-05-03T20:07:10.252Z,52.88
2018-05-03T20:09:37.641Z,52.96
2018-05-03T20:12:05.056Z,52.82
2018-05-03T20:14:32.642Z,52.95
2018-05-03T20:17:00.048Z,53.03
2018-05-03T20:19:27.461Z,53.11
2018-05-03T20:21:55.977Z,52.84
2018-05-03T20:24:23.396Z,52.88
2018-05-03T20:26:50.836Z,53.34
2018-05-03T20:29:18.209Z,53.45
2018-05-03T20:31:45.600Z,53.62
2018-05-03T20:34:13.331Z,53.89
2018-05-03T20:36:40.756Z,53.75
2018-05-03T20:39:08.210Z,53.88
2018-05-03T20:41:35.651Z,53.72
2018-05-03T20:44:03.031Z,54.00
2018-05-03T20:46:30.436Z,54.02
2018-05-03T20:48:57.809Z,54.02
2018-05-03T20:51:25.205Z,54.04
2018-05-03T20:53:52.601Z,53.94
2018-05-03T20:56:19.996Z,54.31
2018-05-03T20:58:47.392Z,54.23
2018-05-03T21:01:14.772Z,54.39
2018-05-03T21:03:42.143Z,54.23
2018-05-03T21:06:09.539Z,54.33
2018-05-03T21:08:36.925Z,54.50
2018-05-03T21:11:04.325Z,54.43
2018-05-03T21:13:31.700Z,54.55
2018-05-03T21:15:59.098Z,54.40
2018-05-03T21:18:26.488Z,54.36
2018-05-03T21:20:53.889Z,54.49
2018-05-03T21:23:21.276Z,54.71
2018-05-03T21:25:48.668Z,54.39
2018-05-03T21:28:16.062Z,54.02
2018-05-03T21:30:43.455Z,54.13
2018-05-03T21:33:10.841Z,54.52
2018-05-03T21:35:38.249Z,54.90
2018-05-03T21:38:05.632Z,54.84
2018-05-03T21:40:33.034Z,55.28
2018-05-03T21:43:00.439Z,55.50
2018-05-03T21:45:27.834Z,55.60
2018-05-03T21:47:55.219Z,55.85
2018-05-03T21:50:22.597Z,56.43
2018-05-03T21:52:49.992Z,56.26
2018-05-03T21:55:17.381Z,56.34
2018-05-03T21:57:44.790Z,56.51
2018-05-03T22:02:38.987Z,56.78
2018-05-03T22:05:06.360Z,56.59
2018-05-03T22:07:33.772Z,56.22
2018-05-03T22:10:01.149Z,56.45
2018-05-03T22:12:28.554Z,56.20
2018-05-03T22:14:55.933Z,56.43
2018-05-03T22:17:23.327Z,56.12
2018-05-03T22:19:50.726Z,56.43
2018-05-03T22:22:18.107Z,56.29
2018-05-03T22:24:45.489Z,56.33
2018-05-03T22:27:12.887Z,56.47
2018-05-03T22:29:40.360Z,56.29
2018-05-03T22:32:07.757Z,56.31
2018-05-03T22:34:35.137Z,56.61
2018-05-03T22:37:02.552Z,56.59
2018-05-03T22:39:29.949Z,56.68
2018-05-03T22:41:57.337Z,56.89
2018-05-03T22:44:24.734Z,57.03
2018-05-03T22:46:52.126Z,57.21
2018-05-03T22:49:19.511Z,57.34
2018-05-03T22:51:46.892Z,57.34
2018-05-03T22:54:14.287Z,57.41
2018-05-03T22:56:41.675Z,57.34
2018-05-03T22:59:09.080Z,57.54
2018-05-03T23:01:36.469Z,57.74
2018-05-03T23:04:03.858Z,57.85
2018-05-03T23:06:31.248Z,57.75
2018-05-03T23:08:58.636Z,57.63
2018-05-03T23:11:26.068Z,57.89
2018-05-03T23:13:53.439Z,57.99
2018-05-03T23:16:20.821Z,58.30
2018-05-03T23:18:48.855Z,58.27
2018-05-03T23:21:16.248Z,58.24
2018-05-03T23:23:43.652Z,58.43
2018-05-03T23:26:11.041Z,58.44
2018-05-03T23:28:38.447Z,58.81
2018-05-03T23:31:05.835Z,58.98
2018-05-03T23:33:33.229Z,59.33
2018-05-03T23:36:00.615Z,59.17
2018-05-03T23:38:28.015Z,59.40
2018-05-03T23:40:56.035Z,59.48
2018-05-03T23:43:23.440Z,59.44
2018-05-03T23:45:50.824Z,59.72
2018-05-03T23:48:18.220Z,59.81
2018-05-03T23:50:45.610Z,59.88
2018-05-03T23:53:13.224Z,60.06
2018-05-03T23:55:40.608Z,60.37
2018-05-03T23:58:08.003Z,60.57
